createdAt,value
2018-05-18T00:00:35.183Z,90.20
2018-05-18T00:03:04.895Z,90.30
2018-05-18T00:05:34.599Z,90.30
2018-05-18T00:08:03.939Z,90.30
2018-05-18T00:10:34.415Z,90.30
2018-05-18T00:13:04.111Z,90.30
2018-05-18T00:15:33.827Z,90.30
2018-05-18T00:18:03.171Z,90.70
2018-05-18T00:20:32.880Z,90.40
2018-05-18T00:23:02.243Z,90.40
2018-05-18T00:25:31.947Z,90.50
2018-05-18T00:28:01.643Z,90.40
2018-05-18T00:30:31.363Z,90.30
2018-05-18T00:33:01.237Z,90.30
2018-05-18T00:35:31.723Z,90.40
2018-05-18T00:38:01.415Z,90.40
2018-05-18T00:40:30.798Z,90.10
2018-05-18T00:43:00.483Z,90.00
2018-05-18T00:45:31.137Z,89.70
2018-05-18T00:48:00.826Z,89.60
2018-05-18T00:50:31.304Z,89.50
2018-05-18T00:53:00.998Z,89.50
2018-05-18T00:55:40.967Z,90.00
2018-05-18T00:58:10.664Z,90.00
2018-05-18T01:00:40.371Z,90.10
2018-05-18T01:03:10.063Z,90.00
2018-05-18T01:05:39.771Z,90.30
2018-05-18T01:08:09.479Z,90.10
2018-05-18T01:10:39.223Z,90.30
2018-05-18T01:13:08.904Z,90.30
2018-05-18T01:15:38.827Z,90.30
2018-05-18T01:18:09.550Z,90.70
2018-05-18T01:20:39.263Z,90.30
2018-05-18T01:23:08.951Z,90.30
2018-05-18T01:25:40.757Z,90.30
2018-05-18T01:28:10.534Z,90.30
2018-05-18T01:30:40.244Z,90.10
2018-05-18T01:33:09.939Z,90.30
2018-05-18T01:35:40.546Z,90.40
2018-05-18T01:38:10.267Z,90.40
2018-05-18T01:40:40.747Z,90.50
2018-05-18T01:43:10.187Z,90.50
2018-05-18T01:45:39.900Z,90.50
2018-05-18T01:48:10.332Z,90.60
2018-05-18T01:50:40.251Z,90.60
2018-05-18T01:53:10.711Z,90.70
2018-05-18T01:55:40.424Z,90.70
2018-05-18T01:58:10.098Z,90.70
2018-05-18T02:00:40.567Z,90.70
2018-05-18T02:03:10.268Z,90.70
2018-05-18T02:05:40.783Z,90.50
2018-05-18T02:08:10.471Z,90.60
2018-05-18T02:10:40.190Z,90.60
2018-05-18T02:13:09.890Z,90.70
2018-05-18T02:15:40.707Z,90.80
2018-05-18T02:18:10.421Z,90.60
2018-05-18T02:20:40.160Z,90.60
2018-05-18T02:23:10.200Z,90.60
2018-05-18T02:25:39.919Z,90.60
2018-05-18T02:28:09.615Z,90.70
2018-05-18T02:30:39.326Z,90.60
2018-05-18T02:33:09.035Z,90.50
2018-05-18T02:35:38.747Z,90.60
2018-05-18T02:38:08.124Z,90.60
2018-05-18T02:40:37.849Z,90.70
2018-05-18T02:43:07.219Z,90.50
2018-05-18T02:45:37.707Z,90.40
2018-05-18T02:48:07.919Z,90.40
2018-05-18T02:50:37.639Z,90.30
2018-05-18T02:53:07.351Z,90.50
2018-05-18T02:55:37.079Z,90.60
2018-05-18T02:58:07.582Z,90.80
2018-05-18T03:00:37.302Z,90.70
2018-05-18T03:03:07.026Z,90.80
2018-05-18T03:05:36.735Z,90.90
2018-05-18T03:08:07.228Z,90.80
2018-05-18T03:10:37.699Z,90.90
2018-05-18T03:13:08.179Z,91.10
2018-05-18T03:15:37.911Z,91.10
2018-05-18T03:18:08.119Z,90.80
2018-05-18T03:20:37.814Z,90.70
2018-05-18T03:23:07.531Z,91.00
2018-05-18T03:25:37.247Z,91.40
2018-05-18T03:28:06.979Z,90.90
2018-05-18T03:30:36.688Z,91.00
2018-05-18T03:33:06.087Z,91.10
2018-05-18T03:35:35.787Z,90.70
2018-05-18T03:38:05.511Z,90.80
2018-05-18T03:40:35.221Z,90.90
2018-05-18T03:43:04.954Z,91.00
2018-05-18T03:45:35.431Z,90.70
2018-05-18T03:48:05.183Z,90.70
2018-05-18T03:50:35.687Z,90.70
2018-05-18T03:53:05.400Z,90.70
2018-05-18T03:55:35.111Z,90.80
2018-05-18T03:58:04.845Z,90.70
2018-05-18T04:00:35.314Z,90.90
2018-05-18T04:03:16.379Z,90.90
2018-05-18T04:05:57.251Z,91.10
2018-05-18T04:08:51.967Z,91.00
2018-05-18T04:11:21.683Z,91.00
2018-05-18T04:13:51.398Z,91.20
2018-05-18T04:16:21.107Z,90.70
2018-05-18T04:18:50.847Z,90.90
2018-05-18T04:21:21.311Z,90.50
2018-05-18T04:23:51.043Z,90.50
2018-05-18T04:26:20.751Z,90.70
2018-05-18T04:28:50.169Z,90.40
2018-05-18T04:31:20.071Z,90.40
2018-05-18T04:33:49.810Z,90.50
2018-05-18T04:36:19.528Z,90.60
2018-05-18T04:38:50.022Z,90.10
2018-05-18T04:41:20.496Z,90.00
2018-05-18T04:43:50.979Z,90.30
2018-05-18T04:46:20.680Z,90.30
2018-05-18T04:48:50.437Z,90.00
2018-05-18T04:51:20.907Z,90.10
2018-05-18T04:53:50.637Z,90.10
2018-05-18T04:56:20.347Z,90.00
2018-05-18T04:58:50.881Z,89.10
2018-05-18T05:01:20.742Z,89.20
2018-05-18T05:03:50.463Z,89.60
2018-05-18T05:06:20.167Z,89.60
2018-05-18T05:08:49.890Z,89.90
2018-05-18T05:11:19.587Z,89.50
2018-05-18T05:13:49.324Z,88.90
2018-05-18T05:16:19.019Z,89.00
2018-05-18T05:18:48.745Z,89.70
2018-05-18T05:21:18.483Z,88.50
2018-05-18T05:23:48.557Z,89.70
2018-05-18T05:26:18.606Z,89.90
2018-05-18T05:28:48.350Z,90.00
2018-05-18T05:31:18.824Z,89.80
2018-05-18T05:33:48.547Z,89.80
2018-05-18T05:36:18.278Z,89.60
2018-05-18T05:38:48.210Z,89.40
2018-05-18T05:41:18.033Z,90.00
2018-05-18T05:43:47.797Z,90.40
2018-05-18T05:46:17.584Z,90.10
2018-05-18T05:48:47.472Z,90.10
2018-05-18T05:51:17.302Z,89.30
2018-05-18T05:53:47.334Z,89.80
2018-05-18T05:56:17.930Z,88.60
2018-05-18T05:58:48.420Z,89.50
2018-05-18T06:01:18.293Z,89.40
2018-05-18T06:03:48.378Z,88.40
2018-05-18T06:06:18.107Z,88.20
2018-05-18T06:08:47.829Z,87.00
2018-05-18T06:11:17.527Z,86.20
2018-05-18T06:13:47.247Z,86.30
2018-05-18T06:16:16.951Z,85.90
2018-05-18T06:18:46.666Z,85.40
2018-05-18T06:21:16.371Z,85.60
2018-05-18T06:23:46.089Z,84.80
2018-05-18T06:26:15.787Z,83.80
2018-05-18T06:28:45.511Z,81.00
2018-05-18T06:31:15.391Z,81.60
2018-05-18T06:33:45.880Z,80.20
2018-05-18T06:36:15.575Z,80.10
2018-05-18T06:38:45.302Z,80.00
2018-05-18T06:41:15.763Z,78.70
2018-05-18T06:43:46.447Z,78.00
2018-05-18T06:46:16.171Z,77.90
2018-05-18T06:48:45.875Z,76.40
2018-05-18T06:51:15.572Z,75.00
2018-05-18T06:53:45.287Z,74.50
2018-05-18T06:56:14.987Z,71.90
2018-05-18T06:58:44.756Z,72.70
2018-05-18T07:01:14.607Z,73.10
2018-05-18T07:03:44.343Z,70.80
2018-05-18T07:06:14.026Z,72.40
2018-05-18T07:08:43.739Z,73.70
2018-05-18T07:11:13.463Z,71.00
2018-05-18T07:13:43.179Z,71.70
2018-05-18T07:16:12.902Z,70.40
2018-05-18T07:18:42.586Z,70.80
2018-05-18T07:21:12.291Z,71.50
2018-05-18T07:23:41.986Z,71.00
2018-05-18T07:26:11.691Z,72.50
2018-05-18T07:28:41.400Z,69.00
2018-05-18T07:31:11.119Z,70.00
2018-05-18T07:33:40.803Z,68.50
2018-05-18T07:36:10.604Z,68.70
2018-05-18T07:38:40.494Z,71.20
2018-05-18T07:41:10.215Z,69.90
2018-05-18T07:43:39.576Z,70.60
2018-05-18T07:46:09.071Z,71.40
2018-05-18T07:48:38.767Z,72.20
2018-05-18T07:51:08.492Z,69.80
2018-05-18T07:53:38.248Z,72.20
2018-05-18T07:56:08.119Z,70.50
2018-05-18T07:58:37.829Z,70.10
2018-05-18T08:01:07.545Z,69.20
2018-05-18T08:03:37.242Z,68.50
2018-05-18T08:06:06.959Z,68.20
2018-05-18T08:08:36.665Z,69.30
2018-05-18T08:11:06.379Z,68.50
2018-05-18T08:13:36.086Z,67.80
2018-05-18T08:16:05.800Z,68.30
2018-05-18T08:18:35.502Z,69.40
2018-05-18T08:21:04.895Z,69.30
2018-05-18T08:23:40.747Z,69.30
2018-05-18T08:26:09.795Z,70.60
2018-05-18T08:28:50.689Z,68.50
2018-05-18T08:31:21.164Z,69.10
2018-05-18T08:33:50.863Z,69.10
2018-05-18T08:36:20.580Z,68.20
2018-05-18T08:38:50.283Z,69.20
2018-05-18T08:41:19.997Z,68.10
2018-05-18T08:43:49.702Z,68.30
2018-05-18T08:46:19.415Z,68.80
2018-05-18T08:48:49.115Z,67.40
2018-05-18T08:51:18.828Z,67.40
2018-05-18T08:53:48.552Z,65.70
2018-05-18T08:56:18.287Z,66.40
2018-05-18T08:58:48.771Z,66.80
2018-05-18T09:01:18.847Z,66.20
2018-05-18T09:03:48.555Z,66.00
2018-05-18T09:06:19.039Z,66.60
2018-05-18T09:08:48.753Z,66.50
2018-05-18T09:11:18.647Z,66.80
2018-05-18T09:13:48.361Z,65.10
2018-05-18T09:16:18.075Z,67.40
2018-05-18T09:18:47.786Z,67.50
2018-05-18T09:21:17.519Z,64.40
2018-05-18T09:23:47.223Z,64.40
2018-05-18T09:26:16.947Z,64.60
2018-05-18T09:28:46.664Z,66.80
2018-05-18T09:31:17.174Z,66.40
2018-05-18T09:33:46.645Z,66.30
2018-05-18T09:36:16.355Z,66.20
2018-05-18T09:38:46.101Z,67.00
2018-05-18T09:41:15.822Z,66.80
2018-05-18T09:43:46.319Z,67.30
2018-05-18T09:46:16.039Z,67.20
2018-05-18T09:48:45.838Z,66.70
2018-05-18T09:51:16.545Z,65.10
2018-05-18T09:53:46.423Z,65.10
2018-05-18T09:56:16.951Z,63.80
2018-05-18T09:58:47.434Z,63.50
2018-05-18T10:01:17.175Z,63.40
2018-05-18T10:03:46.884Z,62.30
2018-05-18T10:06:16.616Z,65.90
2018-05-18T10:08:47.076Z,60.50
2018-05-18T10:11:16.797Z,60.40
2018-05-18T10:13:46.487Z,59.70
2018-05-18T10:16:16.205Z,59.90
2018-05-18T10:18:45.899Z,60.80
2018-05-18T10:21:15.623Z,59.20
2018-05-18T10:23:45.316Z,60.80
2018-05-18T10:26:15.027Z,59.10
2018-05-18T10:28:44.723Z,59.40
2018-05-18T10:31:15.280Z,57.60
2018-05-18T10:33:44.989Z,57.50
2018-05-18T10:36:14.718Z,60.40
2018-05-18T10:38:44.431Z,61.10
2018-05-18T10:41:14.132Z,60.60
2018-05-18T10:43:43.846Z,61.60
2018-05-18T10:46:13.539Z,60.70
2018-05-18T10:48:43.260Z,62.80
2018-05-18T10:51:12.974Z,59.70
2018-05-18T10:53:42.675Z,58.60
2018-05-18T10:56:12.375Z,59.90
2018-05-18T10:58:42.112Z,58.60
2018-05-18T11:01:11.974Z,59.10
2018-05-18T11:03:42.466Z,59.50
2018-05-18T11:06:12.223Z,59.40
2018-05-18T11:08:42.330Z,59.30
2018-05-18T11:11:13.330Z,58.40
2018-05-18T11:13:43.393Z,58.30
2018-05-18T11:16:13.528Z,58.40
2018-05-18T11:18:43.326Z,58.10
2018-05-18T11:21:13.811Z,58.40
2018-05-18T11:23:44.290Z,60.00
2018-05-18T11:26:14.005Z,60.00
2018-05-18T11:28:43.910Z,58.70
2018-05-18T11:31:13.612Z,57.20
2018-05-18T11:33:44.171Z,57.20
2018-05-18T11:36:13.915Z,57.20
2018-05-18T11:38:43.933Z,57.80
2018-05-18T11:41:13.660Z,58.70
2018-05-18T11:43:43.674Z,56.20
2018-05-18T11:46:13.519Z,57.30
2018-05-18T11:48:44.078Z,56.50
2018-05-18T11:51:13.773Z,56.60
2018-05-18T11:53:43.586Z,55.60
2018-05-18T11:56:13.276Z,58.40
2018-05-18T11:58:43.302Z,57.30
2018-05-18T12:01:13.190Z,58.40
2018-05-18T12:03:43.670Z,56.50
2018-05-18T12:06:13.359Z,56.50
2018-05-18T12:08:43.169Z,56.30
2018-05-18T12:11:13.065Z,55.80
2018-05-18T12:13:42.902Z,52.00
2018-05-18T12:16:12.578Z,54.60
2018-05-18T12:18:43.069Z,54.50
2018-05-18T12:21:12.761Z,54.50
2018-05-18T12:23:42.488Z,56.30
2018-05-18T12:26:12.186Z,56.10
2018-05-18T12:28:41.894Z,55.50
2018-05-18T12:31:11.591Z,55.10
2018-05-18T12:33:41.295Z,55.40
2018-05-18T12:36:10.987Z,55.70
2018-05-18T12:38:40.703Z,55.00
2018-05-18T12:41:10.400Z,57.40
2018-05-18T12:43:40.116Z,55.60
2018-05-18T12:46:09.820Z,57.60
2018-05-18T12:48:39.859Z,58.00
2018-05-18T12:51:09.562Z,54.10
2018-05-18T12:53:39.278Z,55.10
2018-05-18T12:56:08.966Z,56.00
2018-05-18T12:58:38.679Z,56.20
2018-05-18T13:01:08.383Z,54.00
2018-05-18T13:03:38.164Z,53.70
2018-05-18T13:06:07.854Z,53.10
2018-05-18T13:08:37.583Z,52.50
2018-05-18T13:11:07.271Z,54.00
2018-05-18T13:13:36.996Z,55.60
2018-05-18T13:16:06.691Z,53.80
2018-05-18T13:18:36.426Z,52.20
2018-05-18T13:21:05.991Z,52.10
2018-05-18T13:23:35.779Z,53.40
2018-05-18T13:26:05.246Z,51.90
2018-05-18T13:28:35.731Z,52.00
2018-05-18T13:31:05.416Z,51.90
2018-05-18T13:33:35.123Z,51.80
2018-05-18T13:36:04.827Z,52.80
2018-05-18T13:38:34.650Z,53.20
2018-05-18T13:41:04.448Z,53.30
2018-05-18T13:43:34.942Z,53.40
2018-05-18T13:46:04.627Z,53.30
2018-05-18T13:48:34.339Z,54.80
2018-05-18T13:51:04.031Z,54.20
2018-05-18T13:53:33.740Z,53.00
2018-05-18T13:56:03.089Z,54.00
2018-05-18T13:58:32.800Z,53.70
2018-05-18T14:01:02.550Z,53.60
2018-05-18T14:03:32.260Z,53.20
2018-05-18T14:06:01.967Z,54.30
2018-05-18T14:08:31.686Z,54.00
2018-05-18T14:11:01.498Z,53.60
2018-05-18T14:13:31.339Z,53.60
2018-05-18T14:16:01.113Z,52.10
2018-05-18T14:18:30.807Z,52.10
2018-05-18T14:21:00.625Z,53.60
2018-05-18T14:23:30.439Z,53.70
2018-05-18T14:26:00.159Z,52.00
2018-05-18T14:28:29.847Z,53.30
2018-05-18T14:31:00.328Z,53.70
2018-05-18T14:33:30.019Z,53.70
2018-05-18T14:35:59.736Z,54.60
2018-05-18T14:38:29.435Z,54.30
2018-05-18T14:40:59.147Z,54.70
2018-05-18T14:43:28.836Z,55.20
2018-05-18T14:46:01.039Z,54.00
2018-05-18T14:48:30.736Z,53.90
2018-05-18T14:51:00.114Z,54.10
2018-05-18T14:53:29.820Z,54.80
2018-05-18T14:55:59.532Z,53.70
2018-05-18T14:58:29.264Z,55.00
2018-05-18T15:00:59.283Z,54.70
2018-05-18T15:03:30.220Z,54.50
2018-05-18T15:05:59.275Z,54.30
2018-05-18T15:08:29.758Z,55.30
2018-05-18T15:10:59.626Z,55.30
2018-05-18T15:13:29.499Z,54.30
2018-05-18T15:15:59.232Z,54.90
2018-05-18T15:18:29.782Z,54.50
2018-05-18T15:20:59.599Z,54.50
2018-05-18T15:23:29.309Z,53.30
2018-05-18T15:25:59.998Z,54.60
2018-05-18T15:28:29.726Z,54.60
2018-05-18T15:31:00.296Z,55.80
2018-05-18T15:33:30.045Z,55.80
2018-05-18T15:35:59.791Z,55.10
2018-05-18T15:38:29.479Z,54.30
2018-05-18T15:40:59.205Z,54.80
2018-05-18T15:43:29.477Z,55.20
2018-05-18T15:45:59.212Z,54.90
2018-05-18T15:48:28.904Z,55.10
2018-05-18T15:50:58.635Z,54.80
2018-05-18T15:53:29.122Z,55.30
2018-05-18T15:55:58.826Z,55.20
2018-05-18T15:58:28.522Z,54.70
2018-05-18T16:00:58.241Z,54.80
2018-05-18T16:03:27.938Z,55.40
2018-05-18T16:05:57.651Z,54.90
2018-05-18T16:08:27.348Z,55.40
2018-05-18T16:10:57.055Z,55.00
2018-05-18T16:13:26.776Z,54.80
2018-05-18T16:15:56.491Z,54.80
2018-05-18T16:18:26.186Z,54.80
2018-05-18T16:20:55.949Z,56.10
2018-05-18T16:23:26.166Z,55.60
2018-05-18T16:25:56.002Z,55.60
2018-05-18T16:28:26.484Z,55.10
2018-05-18T16:30:56.207Z,54.80
2018-05-18T16:33:25.898Z,55.30
2018-05-18T16:35:55.613Z,54.70
2018-05-18T16:38:25.306Z,54.40
2018-05-18T16:40:55.020Z,54.50
2018-05-18T16:43:24.711Z,54.50
2018-05-18T16:45:54.423Z,54.80
2018-05-18T16:48:24.118Z,54.70
2018-05-18T16:50:54.081Z,54.60
2018-05-18T16:53:23.903Z,54.70
2018-05-18T16:55:54.382Z,55.10
2018-05-18T16:58:24.074Z,55.10
2018-05-18T17:00:54.551Z,54.40
2018-05-18T17:03:24.247Z,54.30
2018-05-18T17:05:53.979Z,55.20
2018-05-18T17:08:23.952Z,54.90
2018-05-18T17:10:54.744Z,54.90
2018-05-18T17:13:24.682Z,54.90
2018-05-18T17:15:54.559Z,54.70
2018-05-18T17:18:24.248Z,55.20
2018-05-18T17:20:54.003Z,54.80
2018-05-18T17:23:23.863Z,54.50
2018-05-18T17:25:53.736Z,54.40
2018-05-18T17:28:23.794Z,55.10
2018-05-18T17:30:54.371Z,54.80
2018-05-18T17:33:24.520Z,54.60
2018-05-18T17:35:54.456Z,54.80
2018-05-18T17:38:25.077Z,55.60
2018-05-18T17:40:55.200Z,55.50
2018-05-18T17:43:25.398Z,55.10
2018-05-18T17:45:55.171Z,54.80
2018-05-18T17:48:24.859Z,54.60
2018-05-18T17:50:54.579Z,54.90
2018-05-18T17:53:24.311Z,55.00
2018-05-18T17:55:54.055Z,56.60
2018-05-18T17:58:24.499Z,55.00
2018-05-18T18:00:54.199Z,54.60
2018-05-18T18:03:24.672Z,54.70
2018-05-18T18:05:54.351Z,54.70
2018-05-18T18:08:24.067Z,54.20
2018-05-18T18:10:53.764Z,54.20
2018-05-18T18:13:23.467Z,54.40
2018-05-18T18:15:53.931Z,54.90
2018-05-18T18:18:23.738Z,54.90
2018-05-18T18:20:53.414Z,54.80
2018-05-18T18:23:23.884Z,55.30
2018-05-18T18:25:53.582Z,55.30
2018-05-18T18:28:23.338Z,55.50
2018-05-18T18:30:53.207Z,56.10
2018-05-18T18:33:22.898Z,55.80
2018-05-18T18:35:52.590Z,56.60
2018-05-18T18:38:22.308Z,57.00
2018-05-18T18:40:51.998Z,57.40
2018-05-18T18:43:22.478Z,59.60
2018-05-18T18:45:52.167Z,59.20
2018-05-18T19:06:15.563Z,63.10
2018-05-18T19:08:45.290Z,63.20
2018-05-18T19:11:14.979Z,62.70
2018-05-18T19:13:44.691Z,64.50
2018-05-18T19:16:14.372Z,65.40
2018-05-18T19:18:44.090Z,66.10
2018-05-18T19:21:13.778Z,66.30
2018-05-18T19:23:43.280Z,66.80
2018-05-18T19:26:13.739Z,67.30
2018-05-18T19:28:43.440Z,67.30
2018-05-18T19:31:13.131Z,67.70
2018-05-18T19:33:43.636Z,67.50
2018-05-18T19:36:13.331Z,67.60
2018-05-18T19:38:43.060Z,67.50
2018-05-18T19:41:13.519Z,68.40
2018-05-18T19:43:43.240Z,68.30
2018-05-18T19:46:12.989Z,68.20
2018-05-18T19:48:42.374Z,68.70
2018-05-18T19:51:12.101Z,68.90
2018-05-18T19:53:41.831Z,68.80
2018-05-18T19:56:11.542Z,68.90
2018-05-18T19:58:42.038Z,69.60
2018-05-18T20:01:11.749Z,69.60
2018-05-18T20:03:41.601Z,70.20
2018-05-18T20:06:12.168Z,70.30
2018-05-18T20:08:41.907Z,70.30
2018-05-18T20:11:11.619Z,68.80
2018-05-18T20:13:41.362Z,68.40
2018-05-18T20:16:11.076Z,68.10
2018-05-18T20:18:40.808Z,68.40
2018-05-18T20:21:10.523Z,68.50
2018-05-18T20:23:40.257Z,69.00
2018-05-18T20:26:09.976Z,68.90
2018-05-18T20:28:39.717Z,68.80
2018-05-18T20:31:09.427Z,68.80
2018-05-18T20:33:39.159Z,69.40
2018-05-18T20:36:08.863Z,69.70
2018-05-18T20:38:38.602Z,70.30
2018-05-18T20:41:09.075Z,72.40
2018-05-18T20:43:39.578Z,72.60
2018-05-18T20:46:09.292Z,72.60
2018-05-18T20:48:39.021Z,72.70
2018-05-18T20:51:09.722Z,72.50
2018-05-18T20:53:39.944Z,72.50
2018-05-18T20:56:10.027Z,73.10
2018-05-18T20:58:40.087Z,73.30
2018-05-18T21:01:09.786Z,73.40
2018-05-18T21:03:39.736Z,73.60
2018-05-18T21:06:09.756Z,73.90
2018-05-18T21:08:39.547Z,74.20
2018-05-18T21:11:10.263Z,73.90
2018-05-18T21:13:40.355Z,74.10
2018-05-18T21:16:10.379Z,73.70
2018-05-18T21:18:40.486Z,73.80
2018-05-18T21:21:10.703Z,73.90
2018-05-18T21:23:40.950Z,74.30
2018-05-18T21:26:11.571Z,75.30
2018-05-18T21:28:41.310Z,74.60
2018-05-18T21:31:11.664Z,74.60
2018-05-18T21:33:42.631Z,75.10
2018-05-18T21:36:13.854Z,75.60
2018-05-18T21:38:44.374Z,75.90
2018-05-18T21:41:14.516Z,75.90
2018-05-18T21:43:44.512Z,75.90
2018-05-18T21:46:14.822Z,76.00
2018-05-18T21:48:45.311Z,76.10
2018-05-18T21:51:15.031Z,76.10
2018-05-18T21:53:44.816Z,76.40
2018-05-18T21:56:14.517Z,76.40
2018-05-18T21:58:44.247Z,76.60
2018-05-18T22:01:13.931Z,76.80
2018-05-18T22:03:44.412Z,77.20
2018-05-18T22:06:14.123Z,77.10
2018-05-18T22:08:43.839Z,77.50
2018-05-18T22:11:13.567Z,77.40
2018-05-18T22:13:44.027Z,78.00
2018-05-18T22:16:13.761Z,77.90
2018-05-18T22:18:43.450Z,77.80
2018-05-18T22:21:13.192Z,78.00
2018-05-18T22:23:42.886Z,78.10
2018-05-18T22:26:12.625Z,78.00
2018-05-18T22:28:42.335Z,78.60
2018-05-18T22:31:12.059Z,78.20
2018-05-18T22:33:42.551Z,78.70
2018-05-18T22:36:11.924Z,78.70
2018-05-18T22:38:41.634Z,78.90
2018-05-18T22:41:11.351Z,78.40
2018-05-18T22:43:41.069Z,78.40
2018-05-18T22:46:10.783Z,78.50
2018-05-18T22:48:40.491Z,78.50
2018-05-18T22:51:10.216Z,78.70
2018-05-18T22:53:39.927Z,79.00
2018-05-18T22:56:09.675Z,79.40
2018-05-18T22:58:40.134Z,79.60
2018-05-18T23:01:09.854Z,79.50
2018-05-18T23:03:39.555Z,79.70
2018-05-18T23:06:09.283Z,79.90
2018-05-18T23:08:38.974Z,79.80
2018-05-18T23:11:08.699Z,79.30
2018-05-18T23:13:44.002Z,79.40
2018-05-18T23:16:13.713Z,79.90
2018-05-18T23:18:43.418Z,79.80
2018-05-18T23:21:13.134Z,79.50
2018-05-18T23:23:42.830Z,79.50
2018-05-18T23:26:13.307Z,80.40
2018-05-18T23:28:43.008Z,80.40
2018-05-18T23:31:12.739Z,80.00
2018-05-18T23:33:42.607Z,80.20
2018-05-18T23:36:12.319Z,80.10
2018-05-18T23:38:42.011Z,80.50
2018-05-18T23:41:11.727Z,80.80
2018-05-18T23:43:41.423Z,80.60
2018-05-18T23:46:11.911Z,80.50
2018-05-18T23:48:41.596Z,80.70
2018-05-18T23:51:11.327Z,81.40
2018-05-18T23:53:41.015Z,81.00
2018-05-18T23:56:10.733Z,81.20
2018-05-18T23:58:40.433Z,80.90
